Time;durP1;ratioP1;P1;durP2;ratioP2;P2;SDS_P1;SDS_P2;PMS_P1;PMS_P2;Temp;Humidity;BMP_temperature;BMP_pressure;BME280_temperature;BME280_humidity;BME280_pressure;Samples;Min_cycle;Max_cycle;Signal;HPM_P1;HPM_P2
2022/07/09 00:02:25;;;;;;;5.80;3.58;;;;;;;17.34;63.12;99782.66;4921531;28;103959;-59
2022/07/09 00:04:55;;;;;;;4.88;4.10;;;;;;;16.99;65.32;99786.53;4922430;28;104092;-59
2022/07/09 00:07:26;;;;;;;5.43;3.70;;;;;;;17.16;63.84;99777.97;4919785;28;103391;-59
2022/07/09 00:09:54;;;;;;;5.18;4.00;;;;;;;17.14;63.88;99787.94;4921257;28;102648;-59
2022/07/09 00:12:25;;;;;;;5.10;4.20;;;;;;;16.98;65.45;99779.50;4920286;28;104272;-59
2022/07/09 00:14:53;;;;;;;6.47;3.70;;;;;;;17.05;64.52;99780.69;4923753;28;103329;-59
2022/07/09 00:17:21;;;;;;;4.80;3.40;;;;;;;17.13;64.07;99783.56;4919257;28;103240;-59
2022/07/09 00:19:49;;;;;;;3.55;3.25;;;;;;;17.19;63.35;99778.59;4918320;28;103091;-59
2022/07/09 00:22:18;;;;;;;3.80;3.30;;;;;;;17.16;63.51;99777.97;4903137;28;102733;-60
2022/07/09 00:24:46;;;;;;;4.93;3.25;;;;;;;17.03;63.84;99769.28;4921182;28;103401;-59
2022/07/09 00:27:14;;;;;;;4.43;3.13;;;;;;;17.02;63.87;99770.25;4904549;28;103083;-60
2022/07/09 00:29:43;;;;;;;4.32;3.30;;;;;;;17.07;63.70;99768.91;4919383;28;102662;-59
2022/07/09 00:32:13;;;;;;;5.37;3.73;;;;;;;16.85;64.62;99770.78;4923526;28;102965;-60
2022/07/09 00:34:41;;;;;;;4.35;3.20;;;;;;;16.86;64.58;99767.16;4904729;28;103260;-60
2022/07/09 00:37:09;;;;;;;3.28;2.92;;;;;;;16.81;64.52;99771.03;4924121;28;103195;-59
2022/07/09 00:39:37;;;;;;;3.47;3.00;;;;;;;16.50;65.98;99763.78;4921546;28;103810;-59
2022/07/09 00:42:06;;;;;;;4.03;2.90;;;;;;;16.37;65.56;99767.53;4922533;28;102536;-59
2022/07/09 00:44:35;;;;;;;4.45;2.55;;;;;;;16.31;65.61;99766.19;4903472;28;103282;-59
2022/07/09 00:47:07;;;;;;;3.10;2.10;;;;;;;16.67;64.08;99762.47;4923247;28;103604;-59
2022/07/09 00:49:38;;;;;;;2.58;2.05;;;;;;;16.84;62.95;99761.09;4922001;28;102651;-59
2022/07/09 00:52:08;;;;;;;4.00;2.75;;;;;;;16.78;63.77;99751.78;4920602;28;104306;-59
2022/07/09 00:54:37;;;;;;;4.70;2.83;;;;;;;16.73;64.34;99757.47;4920935;28;104180;-59
2022/07/09 00:57:08;;;;;;;3.47;3.17;;;;;;;16.56;65.70;99747.28;4921226;28;103382;-59
2022/07/09 00:59:37;;;;;;;5.60;2.90;;;;;;;16.59;65.19;99746.22;4922131;28;102634;-59
2022/07/09 01:02:08;;;;;;;3.97;2.80;;;;;;;16.59;65.29;99741.72;4920592;28;102905;-58
2022/07/09 01:04:39;;;;;;;3.28;2.97;;;;;;;16.60;64.97;99742.56;4921538;28;103356;-58
2022/07/09 01:07:07;;;;;;;3.00;2.70;;;;;;;16.50;65.39;99742.44;4921779;28;103322;-58
2022/07/09 01:09:35;;;;;;;3.35;2.90;;;;;;;16.42;65.90;99742.19;4919222;28;102651;-58
2022/07/09 01:12:03;;;;;;;4.28;2.95;;;;;;;16.38;66.00;99735.41;4918417;28;102758;-58
2022/07/09 01:14:31;;;;;;;4.45;2.70;;;;;;;16.24;66.18;99733.00;4922840;28;103899;-58
2022/07/09 01:17:00;;;;;;;3.50;2.17;;;;;;;16.39;65.65;99738.94;4922548;28;103016;-58
2022/07/09 01:19:31;;;;;;;4.18;2.72;;;;;;;16.14;66.17;99740.88;4920970;28;102715;-58
2022/07/09 01:22:01;;;;;;;5.05;2.92;;;;;;;16.12;67.01;99736.63;4916955;28;102664;-58
2022/07/09 01:24:33;;;;;;;4.22;2.70;;;;;;;16.03;66.79;99734.66;4920300;28;103355;-58
2022/07/09 01:27:02;;;;;;;4.15;2.75;;;;;;;15.79;67.66;99732.13;4921441;28;103351;-58
2022/07/09 01:29:32;;;;;;;3.55;2.50;;;;;;;15.90;67.18;99737.47;4902064;28;102846;-59
2022/07/09 01:32:00;;;;;;;3.20;2.35;;;;;;;15.99;66.68;99730.56;4903458;28;103882;-58
2022/07/09 01:34:28;;;;;;;3.45;2.10;;;;;;;16.21;65.19;99725.25;4917439;28;104008;-58
2022/07/09 01:36:56;;;;;;;3.23;2.37;;;;;;;16.16;65.98;99730.09;4902519;28;104438;-58
2022/07/09 01:39:25;;;;;;;3.47;2.47;;;;;;;16.26;65.39;99731.06;4921556;28;102646;-59
2022/07/09 01:41:53;;;;;;;3.03;2.70;;;;;;;16.25;65.99;99729.38;4902042;28;102943;-59
2022/07/09 01:44:21;;;;;;;4.50;3.78;;;;;;;15.88;67.60;99725.22;4920073;28;103298;-59
2022/07/09 01:46:49;;;;;;;5.35;3.78;;;;;;;15.45;70.17;99728.50;4922316;28;103209;-59
2022/07/09 01:49:17;;;;;;;3.22;2.80;;;;;;;15.58;69.54;99726.63;4901597;28;102712;-59
2022/07/09 01:51:45;;;;;;;5.07;3.70;;;;;;;15.60;69.12;99724.72;4916620;28;102619;-59
2022/07/09 01:54:13;;;;;;;4.40;2.97;;;;;;;15.81;67.75;99719.50;4921032;28;103992;-59
2022/07/09 01:56:44;;;;;;;5.90;3.50;;;;;;;15.76;68.17;99723.50;4920108;28;103280;-59
2022/07/09 01:59:12;;;;;;;5.40;3.72;;;;;;;15.57;69.14;99719.63;4917127;28;102680;-59
2022/07/09 02:01:40;;;;;;;4.75;3.63;;;;;;;15.36;69.93;99721.19;4917721;28;103401;-59
2022/07/09 02:04:08;;;;;;;5.50;3.60;;;;;;;15.56;69.35;99711.72;4922842;28;103989;-59
2022/07/09 02:06:36;;;;;;;4.13;3.10;;;;;;;15.70;67.98;99708.84;4922544;28;103215;-59
2022/07/09 02:09:04;;;;;;;3.40;2.77;;;;;;;15.78;67.95;99701.09;4919973;28;102943;-60
2022/07/09 02:11:32;;;;;;;2.88;2.50;;;;;;;15.92;67.09;99702.69;4918953;28;103306;-59
2022/07/09 02:14:01;;;;;;;4.78;3.00;;;;;;;15.91;66.74;99701.00;4922303;28;103266;-58
2022/07/09 02:16:29;;;;;;;5.10;3.37;;;;;;;15.52;69.13;99705.78;4921664;28;103634;-59
2022/07/09 02:18:57;;;;;;;5.40;3.60;;;;;;;15.44;70.00;99701.97;4918596;28;102943;-59
2022/07/09 02:21:26;;;;;;;4.07;3.30;;;;;;;15.35;70.15;99706.22;4893965;28;103553;-59
2022/07/09 02:23:58;;;;;;;4.78;3.17;;;;;;;15.36;70.03;99699.06;4918624;28;103430;-59
2022/07/09 02:26:27;;;;;;;3.70;3.10;;;;;;;15.22;70.33;99710.75;4918290;28;103249;-58
2022/07/09 02:28:55;;;;;;;5.30;3.58;;;;;;;15.04;71.46;99704.16;4919068;28;102701;-59
2022/07/09 02:31:25;;;;;;;4.65;3.47;;;;;;;14.74;72.67;99711.72;4916805;28;103958;-59
2022/07/09 02:33:54;;;;;;;3.40;3.10;;;;;;;15.09;71.14;99707.31;4901792;28;104351;-58
2022/07/09 02:36:22;;;;;;;2.60;2.40;;;;;;;15.38;69.40;99713.13;4919734;28;103236;-58
2022/07/09 02:38:50;;;;;;;3.28;2.60;;;;;;;15.54;68.68;99706.53;4919553;28;102827;-59
2022/07/09 02:41:18;;;;;;;5.07;3.20;;;;;;;15.51;68.79;99709.44;4901793;28;103708;-59
2022/07/09 02:43:46;;;;;;;4.83;3.77;;;;;;;15.09;70.54;99715.31;4914951;28;103494;-59
2022/07/09 02:46:15;;;;;;;3.88;2.85;;;;;;;15.14;70.33;99704.31;4918968;28;103182;-59
2022/07/09 02:48:44;;;;;;;3.92;3.15;;;;;;;15.13;70.64;99705.28;4899791;28;102688;-59
2022/07/09 02:51:15;;;;;;;5.67;3.30;;;;;;;15.14;70.60;99705.16;4919723;28;103051;-59
2022/07/09 02:53:43;;;;;;;2.95;2.55;;;;;;;15.17;70.42;99704.06;4901023;28;103095;-59
2022/07/09 02:56:11;;;;;;;2.83;2.40;;;;;;;15.32;69.39;99702.94;4923853;28;103209;-58
2022/07/09 02:58:40;;;;;;;4.05;3.22;;;;;;;15.22;69.67;99702.75;4924635;28;102673;-58
2022/07/09 03:01:07;;;;;;;4.90;3.20;;;;;;;14.88;71.20;99716.88;4921602;28;104013;-58
2022/07/09 03:03:36;;;;;;;4.95;3.30;;;;;;;14.89;71.44;99715.94;4921274;28;103486;-58
2022/07/09 03:06:07;;;;;;;3.40;2.55;;;;;;;15.04;70.95;99712.16;4922181;28;103076;-58
2022/07/09 03:08:36;;;;;;;3.70;2.80;;;;;;;15.19;70.12;99703.00;4923100;28;102715;-57
2022/07/09 03:11:06;;;;;;;2.97;2.60;;;;;;;15.19;69.68;99703.00;4903718;28;104079;-57
2022/07/09 03:13:34;;;;;;;3.42;3.10;;;;;;;15.13;70.23;99702.63;4917213;28;103189;-57
2022/07/09 03:16:02;;;;;;;3.05;2.60;;;;;;;15.25;69.36;99713.19;4923256;28;103263;-57
2022/07/09 03:18:30;;;;;;;3.28;2.70;;;;;;;15.33;68.87;99709.94;4924940;28;102672;-57
2022/07/09 03:20:59;;;;;;;4.00;3.30;;;;;;;15.08;69.61;99717.09;4922519;28;102700;-57
2022/07/09 03:23:28;;;;;;;3.77;3.03;;;;;;;15.07;70.57;99717.25;4920017;28;104269;-57
2022/07/09 03:25:56;;;;;;;3.30;2.80;;;;;;;15.08;70.52;99716.25;4922281;28;103206;-57
2022/07/09 03:28:24;;;;;;;4.63;3.33;;;;;;;15.04;70.70;99720.94;4920681;28;102827;-57
2022/07/09 03:30:52;;;;;;;3.60;3.00;;;;;;;15.12;69.83;99714.22;4925642;28;103647;-57
2022/07/09 03:33:20;;;;;;;2.40;2.20;;;;;;;15.17;69.54;99720.91;4902829;28;103527;-57
2022/07/09 03:35:48;;;;;;;3.65;2.65;;;;;;;15.27;68.61;99721.06;4923716;28;103171;-57
2022/07/09 03:38:16;;;;;;;4.28;3.22;;;;;;;15.02;70.63;99722.03;4921774;28;102738;-57
2022/07/09 03:40:45;;;;;;;4.93;3.60;;;;;;;14.85;71.27;99723.28;4921261;28;102724;-57
2022/07/09 03:43:13;;;;;;;3.92;3.45;;;;;;;14.56;72.74;99726.38;4919082;28;104158;-57
2022/07/09 03:45:41;;;;;;;3.80;3.40;;;;;;;14.41;73.58;99729.19;4921509;28;103204;-57
2022/07/09 03:48:09;;;;;;;3.67;3.20;;;;;;;14.46;73.75;99724.38;4922305;28;102678;-57
2022/07/09 03:50:37;;;;;;;4.22;3.10;;;;;;;14.26;74.92;99722.25;4907449;28;103169;-57
2022/07/09 03:53:05;;;;;;;5.75;4.28;;;;;;;13.58;77.47;99728.91;4922714;28;103275;-57
2022/07/09 03:55:33;;;;;;;5.18;3.97;;;;;;;13.73;77.03;99727.84;4902734;28;103266;-57
2022/07/09 03:58:02;;;;;;;6.35;4.50;;;;;;;13.62;77.44;99725.06;4906191;28;102809;-57
2022/07/09 04:00:30;;;;;;;4.40;3.50;;;;;;;14.13;76.17;99724.09;4920853;28;102656;-57
2022/07/09 04:02:58;;;;;;;5.88;3.35;;;;;;;14.50;73.61;99730.34;4917989;28;104024;-58
2022/07/09 04:05:26;;;;;;;5.35;3.42;;;;;;;14.55;73.86;99727.34;4918328;28;103226;-57
2022/07/09 04:07:54;;;;;;;4.13;3.70;;;;;;;14.16;75.98;99725.69;4921304;28;102673;-57
2022/07/09 04:10:22;;;;;;;5.45;4.35;;;;;;;13.80;78.04;99729.13;4922768;28;102754;-57
2022/07/09 04:12:54;;;;;;;5.20;4.65;;;;;;;13.46;80.70;99741.22;4920255;28;103623;-57
2022/07/09 04:15:24;;;;;;;6.43;5.00;;;;;;;13.29;81.33;99730.88;4921426;28;103218;-57
2022/07/09 04:17:52;;;;;;;6.67;5.30;;;;;;;13.51;81.00;99738.22;4921589;28;103093;-58
2022/07/09 04:20:21;;;;;;;7.03;5.00;;;;;;;13.61;80.67;99734.00;4903801;28;102721;-57
2022/07/09 04:22:49;;;;;;;6.28;4.90;;;;;;;13.25;82.90;99742.63;4905969;28;104199;-57
2022/07/09 04:25:21;;;;;;;6.68;5.25;;;;;;;13.48;81.91;99744.59;4922850;28;103255;-57
2022/07/09 04:27:49;;;;;;;6.03;5.00;;;;;;;13.55;82.57;99742.38;4918182;28;102720;-59
2022/07/09 04:30:17;;;;;;;4.73;4.33;;;;;;;14.00;80.70;99736.56;4924402;28;104572;-57
2022/07/09 04:32:46;;;;;;;5.60;4.47;;;;;;;14.43;79.05;99734.38;4920699;28;103601;-58
2022/07/09 04:35:14;;;;;;;5.03;4.40;;;;;;;14.62;77.92;99742.75;4922393;28;103190;-56
2022/07/09 04:37:43;;;;;;;3.92;3.25;;;;;;;14.99;76.58;99748.88;4923409;28;102656;-57
2022/07/09 04:40:12;;;;;;;4.30;3.42;;;;;;;15.22;75.42;99744.50;4937123;28;102914;-59
2022/07/09 04:42:40;;;;;;;4.22;3.47;;;;;;;15.23;75.00;99747.06;4924967;28;103333;-59
2022/07/09 04:45:08;;;;;;;4.75;3.45;;;;;;;15.39;73.32;99736.94;4923044;28;103060;-59
2022/07/09 04:47:36;;;;;;;3.70;3.30;;;;;;;15.46;72.97;99737.34;4918626;28;102674;-58
2022/07/09 04:50:10;;;;;;;5.57;3.90;;;;;;;15.46;73.12;99730.25;4904319;28;103974;-58
2022/07/09 04:52:38;;;;;;;7.90;5.18;;;;;;;15.61;75.85;99731.72;4899749;28;104568;-57
2022/07/09 04:55:09;;;;;;;5.53;3.25;;;;;;;15.79;74.38;99729.44;4920872;28;103232;-56
2022/07/09 04:57:37;;;;;;;5.43;3.42;;;;;;;15.84;73.68;99726.41;4920830;28;102848;-59
2022/07/09 05:00:06;;;;;;;3.35;3.05;;;;;;;16.04;73.42;99733.72;4921305;28;103815;-57
2022/07/09 05:02:34;;;;;;;3.97;3.13;;;;;;;16.20;72.63;99734.19;4902798;28;103523;-59
2022/07/09 05:05:03;;;;;;;3.47;3.17;;;;;;;16.31;71.65;99736.84;4920251;28;102980;-59
2022/07/09 05:07:33;;;;;;;3.50;2.92;;;;;;;16.39;71.73;99729.13;4918350;28;102567;-58
2022/07/09 05:10:02;;;;;;;3.70;3.20;;;;;;;16.40;71.30;99725.47;4919882;28;103714;-58
2022/07/09 05:12:30;;;;;;;3.20;2.90;;;;;;;16.54;70.52;99729.72;4904016;28;103279;-58
2022/07/09 05:14:58;;;;;;;3.67;3.03;;;;;;;16.66;70.32;99729.59;4904141;28;103201;-58
2022/07/09 05:17:26;;;;;;;3.40;3.10;;;;;;;16.69;69.95;99725.81;4918513;28;104133;-58
2022/07/09 05:19:54;;;;;;;3.35;2.75;;;;;;;16.81;70.03;99727.50;4919972;28;102772;-58
2022/07/09 05:22:22;;;;;;;3.50;2.80;;;;;;;16.94;68.92;99719.31;4933108;28;104518;-58
2022/07/09 05:24:52;;;;;;;3.35;2.83;;;;;;;17.08;69.05;99721.69;4919872;28;103256;-58
2022/07/09 05:27:20;;;;;;;3.25;2.90;;;;;;;17.06;69.39;99723.66;4921139;28;102885;-58
2022/07/09 05:29:48;;;;;;;3.97;3.08;;;;;;;17.16;68.69;99725.44;4922031;28;103859;-58
2022/07/09 05:32:15;;;;;;;3.10;2.80;;;;;;;17.34;68.56;99728.41;4921799;28;103352;-56
2022/07/09 05:34:46;;;;;;;4.47;3.30;;;;;;;17.20;68.84;99726.03;4922626;28;103142;-54
2022/07/09 05:37:14;;;;;;;4.43;3.00;;;;;;;17.34;68.79;99728.41;4903576;28;105144;-57
2022/07/09 05:39:44;;;;;;;5.50;3.50;;;;;;;17.35;68.65;99725.56;4903712;28;102890;-56
2022/07/09 05:42:13;;;;;;;4.03;3.63;;;;;;;17.43;67.12;99722.28;4916198;28;103977;-56
2022/07/09 05:44:41;;;;;;;5.05;3.47;;;;;;;17.54;68.40;99730.28;4919422;28;103208;-56
2022/07/09 05:47:09;;;;;;;5.00;3.60;;;;;;;17.22;68.66;99729.41;4920350;28;102998;-57
2022/07/09 05:49:37;;;;;;;5.53;3.80;;;;;;;17.05;68.37;99732.63;4904451;28;104141;-57
2022/07/09 05:52:05;;;;;;;3.90;2.85;;;;;;;17.66;67.59;99733.69;4900456;28;102983;-57
2022/07/09 05:54:34;;;;;;;5.28;3.15;;;;;;;17.76;67.18;99735.47;4919396;28;103223;-57
2022/07/09 05:57:01;;;;;;;5.95;3.50;;;;;;;17.68;67.17;99729.94;4917402;28;102729;-57
2022/07/09 05:59:31;;;;;;;4.03;3.28;;;;;;;17.65;67.41;99735.53;4918893;28;102618;-57
2022/07/09 06:01:59;;;;;;;4.60;3.35;;;;;;;17.95;66.22;99724.88;4920074;28;104157;-57
2022/07/09 06:04:27;;;;;;;4.20;3.17;;;;;;;18.06;65.34;99725.78;4919203;28;103065;-57
2022/07/09 06:06:56;;;;;;;4.10;3.20;;;;;;;18.23;64.64;99736.69;4919132;28;102593;-56
2022/07/09 06:09:23;;;;;;;4.05;3.00;;;;;;;18.30;64.52;99724.47;4921274;28;102843;-57
2022/07/09 06:11:51;;;;;;;5.55;3.25;;;;;;;18.39;64.45;99725.50;4920268;28;103268;-56
2022/07/09 06:14:20;;;;;;;4.60;2.90;;;;;;;18.45;63.63;99733.81;4901196;28;103189;-57
2022/07/09 06:16:55;;;;;;;3.90;2.92;;;;;;;18.69;62.67;99728.16;4919875;28;102672;-58
2022/07/09 06:19:24;;;;;;;4.07;3.03;;;;;;;18.65;62.97;99724.06;4923706;28;103059;-59
2022/07/09 06:21:52;;;;;;;3.67;2.53;;;;;;;19.04;61.45;99719.59;4919798;28;103735;-60
2022/07/09 06:24:20;;;;;;;5.38;4.57;;;;;;;18.85;62.00;99719.59;4920527;28;103242;-60
2022/07/09 06:26:48;;;;;;;5.13;4.63;;;;;;;19.08;62.23;99721.88;4919825;28;103902;-58
2022/07/09 06:29:16;;;;;;;4.55;4.10;;;;;;;19.06;61.68;99717.63;4920298;28;104199;-59
2022/07/09 06:31:43;;;;;;;6.68;3.92;;;;;;;19.29;61.26;99715.53;4916596;28;103365;-60
2022/07/09 06:34:13;;;;;;;4.85;2.92;;;;;;;19.10;61.73;99714.53;4902229;28;103439;-59
2022/07/09 06:36:44;;;;;;;3.53;2.33;;;;;;;19.54;60.65;99709.59;4919459;28;102552;-59
2022/07/09 06:42:04;;;;;;;4.63;2.93;;;;;;;19.36;60.28;99708.63;4921390;28;103992;-58
2022/07/09 06:44:33;;;;;;;4.25;2.50;;;;;;;19.59;59.87;99710.03;4919211;28;103662;-58
2022/07/09 06:47:01;;;;;;;3.15;2.30;;;;;;;19.78;59.12;99707.31;4918828;28;102722;-59
2022/07/09 06:49:32;;;;;;;4.13;2.45;;;;;;;19.93;59.80;99707.72;4921952;28;102872;-58
2022/07/09 06:52:01;;;;;;;4.03;2.60;;;;;;;19.92;60.03;99704.19;4918640;28;103325;-59
2022/07/09 06:54:30;;;;;;;4.15;2.67;;;;;;;20.18;59.16;99705.19;4903889;28;103204;-58
2022/07/09 06:56:58;;;;;;;5.72;2.90;;;;;;;20.22;58.78;99692.34;4917010;28;102793;-58
2022/07/09 06:59:32;;;;;;;3.00;2.47;;;;;;;20.63;57.53;99699.09;4920315;28;102738;-61
2022/07/09 07:02:00;;;;;;;4.67;3.00;;;;;;;20.33;57.49;99702.06;4920465;28;103567;-58
2022/07/09 07:04:28;;;;;;;2.78;2.17;;;;;;;20.72;57.47;99700.84;4918719;28;103284;-58
2022/07/09 07:06:58;;;;;;;3.75;2.50;;;;;;;20.92;56.44;99699.72;4917890;28;102710;-58
2022/07/09 07:09:25;;;;;;;2.35;2.15;;;;;;;21.25;56.53;99704.44;4888747;28;104392;-58
2022/07/09 07:11:53;;;;;;;4.75;2.70;;;;;;;21.27;55.64;99707.00;4902869;28;103345;-58
2022/07/09 07:14:21;;;;;;;4.18;2.33;;;;;;;21.65;55.12;99706.63;4902131;28;103479;-58
2022/07/09 07:16:50;;;;;;;4.30;2.50;;;;;;;22.00;55.45;99699.50;4908847;28;102880;-58
2022/07/09 07:19:20;;;;;;;3.75;2.47;;;;;;;21.82;54.03;99694.13;4910825;28;104020;-61
2022/07/09 07:21:48;;;;;;;4.30;2.40;;;;;;;21.79;54.52;99686.38;4892258;28;103362;-61
2022/07/09 07:24:17;;;;;;;6.30;2.90;;;;;;;21.80;54.47;99698.84;4907883;28;103474;-60
2022/07/09 07:26:45;;;;;;;3.20;2.08;;;;;;;22.35;53.54;99694.78;4911048;28;103024;-61
2022/07/09 07:29:13;;;;;;;4.28;2.53;;;;;;;22.44;53.03;99688.44;4911645;28;102678;-61
2022/07/09 07:31:41;;;;;;;4.82;2.85;;;;;;;21.73;53.30;99693.22;4911873;28;103317;-60
2022/07/09 07:34:09;;;;;;;5.67;2.50;;;;;;;22.01;53.31;99691.25;4909576;28;103287;-61
2022/07/09 07:36:37;;;;;;;5.82;2.33;;;;;;;21.92;53.72;99686.84;4914852;28;102762;-61
2022/07/09 07:39:05;;;;;;;4.95;2.40;;;;;;;22.41;53.08;99696.84;4915213;28;102705;-60
2022/07/09 07:41:34;;;;;;;4.07;2.37;;;;;;;22.90;52.37;99695.19;4894262;28;103332;-60
2022/07/09 07:44:02;;;;;;;3.50;2.42;;;;;;;23.01;51.00;99688.63;4907190;28;103204;-61
2022/07/09 07:46:30;;;;;;;4.72;2.55;;;;;;;23.02;50.86;99699.22;4912332;28;103047;-61
2022/07/09 07:48:58;;;;;;;5.43;2.80;;;;;;;22.81;52.17;99696.16;4912674;28;102739;-61
2022/07/09 07:51:28;;;;;;;4.10;2.47;;;;;;;23.02;51.42;99693.84;4915083;28;103218;-61
2022/07/09 07:53:56;;;;;;;4.10;2.63;;;;;;;23.22;50.53;99688.13;4877308;28;103172;-61
2022/07/09 07:56:24;;;;;;;4.15;2.78;;;;;;;23.36;50.15;99696.41;4921475;28;102673;-61
2022/07/09 07:58:53;;;;;;;5.30;2.85;;;;;;;24.10;48.59;99684.56;4916372;28;103981;-62
2022/07/09 08:01:21;;;;;;;3.67;2.33;;;;;;;24.52;48.76;99679.69;4915832;28;104352;-60
2022/07/09 08:03:49;;;;;;;4.53;2.47;;;;;;;25.16;47.03;99680.31;4913526;28;103437;-63
2022/07/09 08:06:17;;;;;;;3.63;2.17;;;;;;;25.59;46.17;99679.66;4910391;28;102823;-64
2022/07/09 08:08:45;;;;;;;4.47;2.25;;;;;;;26.15;45.38;99674.72;4928785;28;102822;-64
2022/07/09 08:11:14;;;;;;;6.70;2.80;;;;;;;23.35;48.20;99685.81;4934795;28;103515;-63
2022/07/09 08:13:42;;;;;;;5.20;2.33;;;;;;;24.05;48.46;99684.22;4934353;28;103876;-60
2022/07/09 08:16:11;;;;;;;6.37;2.67;;;;;;;24.64;45.38;99678.28;4939389;28;102915;-63
2022/07/09 08:18:39;;;;;;;6.07;3.10;;;;;;;24.11;46.46;99678.16;4921373;28;102935;-63
2022/07/09 08:21:09;;;;;;;4.07;2.23;;;;;;;25.89;45.82;99675.97;4934927;28;103470;-61
2022/07/09 08:23:51;;;;;;;5.28;2.42;;;;;;;25.59;44.29;99674.25;4934003;28;103452;-61
2022/07/09 08:26:19;;;;;;;2.75;1.77;;;;;;;26.52;44.80;99666.47;4936762;28;103042;-61
2022/07/09 08:28:48;;;;;;;5.72;1.77;;;;;;;27.37;42.69;99656.56;4898331;28;102868;-61
2022/07/09 08:31:18;;;;;;;3.70;2.10;;;;;;;28.10;42.32;99657.97;4906427;28;104121;-62
2022/07/09 08:33:46;;;;;;;3.33;1.85;;;;;;;27.96;41.65;99657.03;4911989;28;103292;-61
2022/07/09 08:36:14;;;;;;;4.28;1.90;;;;;;;27.52;42.41;99661.94;4915809;28;102674;-61
2022/07/09 08:38:43;;;;;;;4.60;2.08;;;;;;;28.42;41.21;99651.06;4916826;28;102666;-61
2022/07/09 08:41:11;;;;;;;3.43;1.60;;;;;;;27.98;42.77;99654.13;4896800;28;104572;-61
2022/07/09 08:43:39;;;;;;;3.20;1.83;;;;;;;28.32;43.70;99654.16;4906175;28;103227;-61
2022/07/09 08:46:08;;;;;;;4.07;2.00;;;;;;;27.78;42.10;99645.88;4894447;28;103080;-60
2022/07/09 08:48:37;;;;;;;3.20;1.70;;;;;;;27.95;42.08;99641.81;4905920;28;104735;-61
2022/07/09 08:51:06;;;;;;;4.85;2.10;;;;;;;28.72;40.98;99641.56;4912938;28;103321;-61
2022/07/09 08:53:35;;;;;;;3.58;1.60;;;;;;;28.89;40.24;99642.03;4940795;28;103198;-62
2022/07/09 08:56:03;;;;;;;3.93;1.70;;;;;;;28.17;39.82;99638.00;4929849;28;103133;-62
2022/07/09 08:58:32;;;;;;;3.45;1.73;;;;;;;28.57;41.20;99627.28;4945718;28;103126;-62
2022/07/09 09:01:01;;;;;;;3.85;1.65;;;;;;;28.49;39.71;99627.47;4933382;28;103496;-62
2022/07/09 09:03:29;;;;;;;2.38;1.40;;;;;;;29.20;39.66;99626.81;4948975;28;103160;-62
2022/07/09 09:06:06;;;;;;;2.10;1.20;;;;;;;29.88;38.68;99619.31;4932567;28;102912;-62
2022/07/09 09:08:35;;;;;;;3.33;1.33;;;;;;;29.20;38.26;99626.81;4934058;28;104730;-62
2022/07/09 09:11:05;;;;;;;2.80;1.40;;;;;;;29.49;39.92;99612.00;4938669;28;103316;-62
2022/07/09 09:13:38;;;;;;;2.77;1.50;;;;;;;30.11;40.49;99606.03;4932825;28;103313;-62
2022/07/09 09:16:08;;;;;;;3.73;1.47;;;;;;;30.54;38.31;99605.50;4935803;28;102916;-62
2022/07/09 09:18:41;;;;;;;2.47;1.30;;;;;;;30.14;39.35;99608.34;4918224;28;103236;-62
2022/07/09 09:21:14;;;;;;;3.88;1.60;;;;;;;29.85;37.65;99600.66;4936187;28;103219;-62
2022/07/09 09:23:43;;;;;;;3.58;1.70;;;;;;;30.37;38.11;99600.50;4936677;28;103472;-62
2022/07/09 09:26:13;;;;;;;1.92;1.15;;;;;;;29.93;36.99;99594.97;4936133;28;102933;-62
2022/07/09 09:28:53;;;;;;;2.13;1.30;;;;;;;30.97;34.98;99593.69;4919400;28;102791;-62
2022/07/09 09:31:25;;;;;;;2.80;1.33;;;;;;;29.89;36.08;99591.03;4935955;28;103349;-62
2022/07/09 09:33:54;;;;;;;3.85;1.55;;;;;;;30.23;35.71;99593.41;4918722;28;103250;-63
2022/07/09 09:36:36;;;;;;;4.43;1.83;;;;;;;29.17;36.63;99591.84;4917177;28;103652;-62
2022/07/09 09:39:14;;;;;;;3.70;1.48;;;;;;;29.62;38.03;99584.75;4937966;28;102756;-62
2022/07/09 09:41:43;;;;;;;3.15;1.20;;;;;;;31.04;36.39;99585.47;4936145;28;103914;-62
2022/07/09 09:44:14;;;;;;;3.13;1.30;;;;;;;30.61;37.56;99589.91;4935786;28;103217;-62
2022/07/09 09:46:43;;;;;;;3.15;1.42;;;;;;;30.13;35.59;99587.59;4933610;28;103007;-62
2022/07/09 09:49:14;;;;;;;2.65;1.30;;;;;;;31.83;35.97;99576.59;4916969;28;102803;-63
2022/07/09 09:51:52;;;;;;;3.13;1.52;;;;;;;29.21;37.56;99581.41;4932576;28;103285;-62
2022/07/09 09:54:21;;;;;;;2.58;1.52;;;;;;;29.03;39.38;99587.47;4911385;28;103314;-62
2022/07/09 09:56:50;;;;;;;3.45;1.50;;;;;;;29.65;36.50;99572.59;4937508;28;102806;-62
2022/07/09 09:59:18;;;;;;;2.55;1.13;;;;;;;29.26;36.55;99577.03;4937437;28;104684;-62
2022/07/09 10:01:47;;;;;;;1.70;0.90;;;;;;;28.46;36.33;99578.97;4934971;28;104743;-63
2022/07/09 10:04:16;;;;;;;2.47;1.00;;;;;;;28.73;36.29;99567.13;4932164;28;103463;-62
2022/07/09 10:06:44;;;;;;;1.67;1.00;;;;;;;28.75;35.91;99567.75;4916230;28;102919;-62
2022/07/09 10:09:15;;;;;;;2.40;1.10;;;;;;;28.42;35.63;99572.25;4931836;28;103339;-62
2022/07/09 10:11:44;;;;;;;2.37;1.20;;;;;;;27.57;37.71;99569.91;4904298;28;104041;-63
2022/07/09 10:14:29;;;;;;;1.83;1.10;;;;;;;29.10;37.61;99569.28;4924035;28;103424;-62
2022/07/09 10:16:57;;;;;;;3.70;1.20;;;;;;;29.81;36.09;99561.31;4908909;28;105761;-62
2022/07/09 10:19:26;;;;;;;2.50;0.90;;;;;;;30.77;34.35;99557.50;4929588;28;103726;-62
2022/07/09 10:21:57;;;;;;;2.42;1.20;;;;;;;30.09;37.87;99559.09;4908036;28;103488;-62
2022/07/09 10:24:27;;;;;;;1.77;1.00;;;;;;;29.98;34.13;99554.31;4920745;28;103231;-63
2022/07/09 10:27:05;;;;;;;2.38;0.90;;;;;;;27.76;37.37;99562.94;4903853;28;102986;-63
2022/07/09 10:29:33;;;;;;;1.43;1.00;;;;;;;26.15;40.00;99566.41;4932213;28;102807;-62
2022/07/09 10:32:02;;;;;;;3.83;1.37;;;;;;;26.02;41.03;99560.78;4912609;28;103286;-62
2022/07/09 10:34:49;;;;;;;2.67;1.05;;;;;;;26.06;40.50;99562.09;4929948;28;103175;-62
2022/07/09 10:37:18;;;;;;;2.92;1.02;;;;;;;25.47;40.14;99553.97;4931032;28;103267;-62
2022/07/09 10:39:55;;;;;;;1.60;1.00;;;;;;;27.33;39.61;99551.34;4933835;28;104349;-63
2022/07/09 10:42:24;;;;;;;2.15;0.98;;;;;;;28.53;36.93;99547.19;4903297;28;102911;-62
2022/07/09 10:44:53;;;;;;;7.73;6.97;;;;;;;28.19;37.21;99546.25;4929253;28;103235;-62
2022/07/09 10:47:21;;;;;;;3.65;2.88;;;;;;;27.55;37.83;99551.13;4931907;28;103037;-62
2022/07/09 10:49:49;;;;;;;1.57;1.30;;;;;;;28.22;37.69;99552.31;4928459;28;102849;-62
2022/07/09 10:52:17;;;;;;;1.75;1.13;;;;;;;28.84;37.30;99552.94;4931933;28;103899;-62
2022/07/09 10:54:49;;;;;;;3.10;1.52;;;;;;;28.77;37.96;99552.09;4930878;28;103396;-62
2022/07/09 10:57:18;;;;;;;2.10;1.20;;;;;;;28.33;38.24;99549.00;4938030;28;103004;-62
2022/07/09 10:59:47;;;;;;;2.72;1.20;;;;;;;28.18;38.60;99546.47;4933845;28;102959;-62
2022/07/09 11:02:20;;;;;;;2.65;1.00;;;;;;;28.40;38.58;99544.44;4930473;28;103283;-62
2022/07/09 11:04:51;;;;;;;2.55;1.33;;;;;;;28.65;37.59;99549.16;4932390;28;103355;-63
2022/07/09 11:07:21;;;;;;;2.35;1.10;;;;;;;28.15;36.83;99553.13;4936391;28;102763;-63
2022/07/09 11:09:50;;;;;;;1.90;1.00;;;;;;;27.44;38.21;99542.69;4938473;28;103895;-63
2022/07/09 11:12:20;;;;;;;3.25;1.02;;;;;;;26.26;38.21;99546.94;4940928;28;104431;-62
2022/07/09 11:14:49;;;;;;;1.23;0.67;;;;;;;28.71;39.17;99536.59;4941137;28;103204;-62
2022/07/09 11:17:19;;;;;;;2.40;0.98;;;;;;;29.71;37.02;99530.91;4945396;28;104005;-62
2022/07/09 11:19:47;;;;;;;1.85;0.90;;;;;;;30.66;34.23;99522.75;4943324;28;102769;-62
2022/07/09 11:22:16;;;;;;;1.77;0.90;;;;;;;29.76;34.32;99520.19;4942728;28;103332;-62
2022/07/09 11:24:44;;;;;;;2.28;0.95;;;;;;;29.43;35.19;99531.19;4944149;28;103517;-62
2022/07/09 11:27:14;;;;;;;1.92;1.00;;;;;;;30.09;35.40;99518.22;4925553;28;103048;-63
2022/07/09 11:29:48;;;;;;;1.40;0.80;;;;;;;27.69;35.64;99515.91;4943221;28;103047;-62
2022/07/09 11:32:17;;;;;;;1.90;1.05;;;;;;;28.02;36.72;99525.03;4937372;28;103314;-62
2022/07/09 11:34:51;;;;;;;2.33;1.00;;;;;;;28.29;39.37;99520.59;4939559;28;103208;-62
2022/07/09 11:37:24;;;;;;;2.95;1.25;;;;;;;26.99;41.53;99523.13;4935432;28;102967;-62